createdAt,value
2019-05-14T00:01:02.809Z,9.80
2019-05-14T00:03:31.122Z,12.13
2019-05-14T00:05:59.574Z,6.83
2019-05-14T00:08:31.386Z,7.37
2019-05-14T00:11:01.447Z,10.87
2019-05-14T00:13:31.894Z,10.53
2019-05-14T00:16:01.422Z,11.00
2019-05-14T00:18:31.515Z,10.77
2019-05-14T00:21:01.977Z,11.10
2019-05-14T00:23:31.944Z,11.50
2019-05-14T00:26:01.729Z,11.67
2019-05-14T00:28:31.818Z,12.97
2019-05-14T00:31:02.637Z,12.30
2019-05-14T00:33:31.509Z,11.87
2019-05-14T00:36:02.119Z,17.67
2019-05-14T00:38:31.522Z,17.93
2019-05-14T00:41:02.047Z,10.43
2019-05-14T00:43:32.070Z,11.47
2019-05-14T00:46:01.677Z,13.97
2019-05-14T00:48:31.839Z,12.47
2019-05-14T00:51:02.140Z,10.27
2019-05-14T00:53:31.997Z,11.57
2019-05-14T00:56:02.224Z,9.97
2019-05-14T00:58:31.273Z,12.13
2019-05-14T01:01:01.511Z,10.93
2019-05-14T01:03:32.185Z,9.90
2019-05-14T01:06:02.205Z,11.57
2019-05-14T01:08:31.922Z,9.53
2019-05-14T01:11:01.625Z,10.30
2019-05-14T01:13:31.266Z,9.00
2019-05-14T01:16:01.614Z,10.33
2019-05-14T01:18:32.040Z,13.83
2019-05-14T01:21:01.132Z,11.57
2019-05-14T01:23:32.073Z,11.43
2019-05-14T01:26:02.075Z,11.53
2019-05-14T01:28:31.964Z,11.53
2019-05-14T01:31:01.142Z,14.97
2019-05-14T01:33:31.628Z,14.43
2019-05-14T01:36:01.813Z,12.30
2019-05-14T01:38:31.449Z,18.03
2019-05-14T01:41:01.834Z,20.60
2019-05-14T01:43:31.532Z,13.53
2019-05-14T01:46:01.925Z,12.90
2019-05-14T01:48:31.313Z,14.73
2019-05-14T01:51:01.580Z,14.33
2019-05-14T01:53:31.194Z,14.47
2019-05-14T01:56:01.597Z,13.67
2019-05-14T01:58:31.098Z,11.23
2019-05-14T02:01:01.955Z,12.13
2019-05-14T02:03:32.067Z,12.20
2019-05-14T02:06:01.366Z,9.97
2019-05-14T02:08:32.120Z,13.87
2019-05-14T02:11:01.736Z,13.70
2019-05-14T02:13:32.261Z,12.33
2019-05-14T02:16:01.294Z,13.93
2019-05-14T02:18:31.149Z,14.03
2019-05-14T02:21:01.554Z,16.00
2019-05-14T02:23:31.746Z,12.73
2019-05-14T02:26:01.996Z,14.17
2019-05-14T02:28:31.520Z,14.80
2019-05-14T02:31:03.673Z,14.77
2019-05-14T02:33:30.734Z,13.77
2019-05-14T02:35:59.930Z,21.43
2019-05-14T02:38:30.016Z,15.77
2019-05-14T02:40:59.982Z,16.97
2019-05-14T02:43:29.492Z,14.07
2019-05-14T02:46:10.853Z,14.60
2019-05-14T02:48:29.243Z,20.67
2019-05-14T02:50:59.970Z,18.43
2019-05-14T02:53:29.637Z,25.63
2019-05-14T02:55:59.232Z,26.73
2019-05-14T02:58:29.898Z,23.07
2019-05-14T03:01:00.462Z,23.83
2019-05-14T03:03:29.918Z,22.50
2019-05-14T03:06:00.391Z,24.97
2019-05-14T03:08:30.372Z,26.80
2019-05-14T03:11:00.277Z,27.27
2019-05-14T03:13:29.532Z,30.77
2019-05-14T03:15:59.384Z,28.47
2019-05-14T03:18:29.577Z,32.27
2019-05-14T03:21:00.706Z,30.30
2019-05-14T03:23:30.231Z,30.10
2019-05-14T03:26:00.597Z,29.30
2019-05-14T03:28:30.436Z,31.00
2019-05-14T03:31:02.927Z,30.17
2019-05-14T03:33:33.426Z,36.43
2019-05-14T03:36:08.288Z,36.33
2019-05-14T03:38:29.601Z,37.73
2019-05-14T03:41:00.272Z,33.40
2019-05-14T03:43:29.575Z,39.20
2019-05-14T03:45:59.353Z,36.37
2019-05-14T03:48:29.629Z,34.53
2019-05-14T03:51:00.233Z,42.80
2019-05-14T03:53:29.606Z,39.17
2019-05-14T03:55:59.687Z,36.57
2019-05-14T03:58:30.026Z,37.83
2019-05-14T04:01:01.538Z,35.37
2019-05-14T04:03:30.919Z,36.33
2019-05-14T04:05:59.986Z,42.20
2019-05-14T04:08:29.316Z,34.80
2019-05-14T04:10:59.122Z,38.17
2019-05-14T04:13:30.272Z,31.43
2019-05-14T04:16:00.239Z,32.97
2019-05-14T04:18:29.090Z,37.60
2019-05-14T04:20:59.558Z,32.87
2019-05-14T04:23:29.071Z,36.87
2019-05-14T04:26:00.557Z,34.40
2019-05-14T04:28:29.821Z,32.17
2019-05-14T04:30:59.655Z,38.47
2019-05-14T04:33:30.323Z,35.10
2019-05-14T04:35:59.858Z,28.13
2019-05-14T04:38:29.855Z,32.63
2019-05-14T04:40:59.769Z,28.90
2019-05-14T04:43:29.368Z,30.30
2019-05-14T04:45:59.170Z,32.27
2019-05-14T04:48:36.320Z,29.97
2019-05-14T04:51:00.421Z,29.13
2019-05-14T04:53:30.839Z,23.00
2019-05-14T04:56:00.061Z,26.63
2019-05-14T04:58:29.752Z,20.87
2019-05-14T05:01:00.714Z,32.97
2019-05-14T05:03:31.497Z,31.00
2019-05-14T05:05:59.013Z,33.73
2019-05-14T05:08:30.556Z,29.57
2019-05-14T05:11:00.031Z,28.77
2019-05-14T05:13:29.200Z,30.20
2019-05-14T05:15:59.465Z,26.87
2019-05-14T05:18:29.401Z,27.50
2019-05-14T05:20:58.401Z,30.30
2019-05-14T05:23:28.175Z,30.37
2019-05-14T05:25:58.582Z,37.73
2019-05-14T05:28:28.395Z,28.43
2019-05-14T05:30:58.587Z,37.07
2019-05-14T05:33:29.408Z,33.27
2019-05-14T05:35:59.252Z,37.40
2019-05-14T05:38:29.174Z,37.67
2019-05-14T05:41:00.292Z,38.00
2019-05-14T05:43:28.639Z,39.07
2019-05-14T05:45:59.229Z,45.23
2019-05-14T05:48:28.527Z,42.30
2019-05-14T05:50:59.147Z,43.27
2019-05-14T05:53:28.737Z,41.97
2019-05-14T05:55:59.297Z,38.10
2019-05-14T05:58:30.058Z,36.03
2019-05-14T06:00:59.138Z,35.77
2019-05-14T06:03:30.262Z,36.10
2019-05-14T06:05:59.325Z,33.60
2019-05-14T06:08:28.259Z,30.23
2019-05-14T06:10:58.888Z,33.07
2019-05-14T06:13:28.713Z,32.30
2019-05-14T06:15:59.023Z,30.77
2019-05-14T06:18:28.560Z,28.17
2019-05-14T06:20:58.597Z,36.73
2019-05-14T06:23:28.462Z,33.27
2019-05-14T06:25:59.726Z,31.57
2019-05-14T06:28:32.906Z,31.77
2019-05-14T06:30:58.888Z,27.37
2019-05-14T06:33:28.630Z,31.50
2019-05-14T06:35:59.157Z,45.10
2019-05-14T06:38:29.494Z,30.10
2019-05-14T06:40:59.294Z,30.97
2019-05-14T06:43:28.714Z,34.73
2019-05-14T06:45:58.494Z,33.90
2019-05-14T06:48:33.711Z,39.97
2019-05-14T06:50:58.333Z,41.63
2019-05-14T06:53:29.105Z,41.07
2019-05-14T06:55:58.799Z,41.23
2019-05-14T06:58:29.562Z,33.67
2019-05-14T07:00:58.971Z,37.83
2019-05-14T07:03:28.166Z,31.33
2019-05-14T07:05:56.748Z,28.47
2019-05-14T07:08:25.133Z,33.17
2019-05-14T07:10:53.554Z,33.40
2019-05-14T07:13:21.932Z,35.50
2019-05-14T07:15:50.341Z,29.27
2019-05-14T07:18:19.130Z,30.70
2019-05-14T07:20:48.491Z,33.13
2019-05-14T07:23:19.335Z,30.90
2019-05-14T07:25:48.314Z,30.17
2019-05-14T07:28:19.152Z,30.90
2019-05-14T07:30:48.592Z,26.43
2019-05-14T07:33:18.344Z,27.30
2019-05-14T07:35:48.762Z,26.77
2019-05-14T07:38:19.383Z,27.70
2019-05-14T07:40:49.226Z,31.33
2019-05-14T07:43:18.904Z,31.40
2019-05-14T07:45:49.106Z,25.73
2019-05-14T07:48:19.035Z,20.70
2019-05-14T07:50:49.145Z,18.70
2019-05-14T07:53:17.988Z,18.30
2019-05-14T07:55:49.081Z,12.17
2019-05-14T07:58:19.401Z,13.13
2019-05-14T08:00:49.244Z,13.53
2019-05-14T08:03:19.062Z,10.33
2019-05-14T08:05:48.266Z,13.47
2019-05-14T08:08:18.788Z,12.47
2019-05-14T08:10:48.739Z,14.07
2019-05-14T08:13:18.964Z,11.83
2019-05-14T08:15:49.037Z,12.53
2019-05-14T08:18:18.844Z,9.53
2019-05-14T08:20:48.602Z,9.57
2019-05-14T08:23:18.419Z,11.50
2019-05-14T08:25:48.086Z,10.40
2019-05-14T08:28:18.445Z,9.33
2019-05-14T08:30:48.907Z,6.87
2019-05-14T08:33:18.407Z,7.13
2019-05-14T08:35:48.666Z,21.30
2019-05-14T08:38:18.459Z,9.80
2019-05-14T08:40:48.874Z,4.93
2019-05-14T08:43:18.465Z,4.07
2019-05-14T08:45:48.689Z,6.83
2019-05-14T08:48:19.015Z,3.17
2019-05-14T08:50:48.200Z,4.33
2019-05-14T08:53:18.626Z,6.47
2019-05-14T08:55:48.698Z,4.30
2019-05-14T08:58:20.104Z,3.30
2019-05-14T09:00:48.301Z,4.23
2019-05-14T09:03:19.102Z,6.77
2019-05-14T09:05:48.966Z,3.80
2019-05-14T09:08:19.058Z,4.37
2019-05-14T09:10:49.463Z,3.13
2019-05-14T09:13:18.431Z,6.60
2019-05-14T09:15:49.001Z,4.00
2019-05-14T09:18:18.459Z,2.90
2019-05-14T09:20:48.806Z,2.73
2019-05-14T09:23:19.050Z,3.13
2019-05-14T09:25:52.852Z,4.13
2019-05-14T09:28:18.821Z,5.90
2019-05-14T09:30:48.791Z,4.67
2019-05-14T09:33:19.003Z,2.80
2019-05-14T09:35:49.342Z,4.10
2019-05-14T09:38:18.822Z,3.47
2019-05-14T09:40:48.930Z,4.20
2019-05-14T09:43:18.075Z,4.47
2019-05-14T09:45:48.190Z,4.60
2019-05-14T09:48:18.039Z,5.97
2019-05-14T09:50:48.765Z,6.60
2019-05-14T09:53:18.151Z,4.47
2019-05-14T09:55:48.953Z,2.73
2019-05-14T09:58:19.850Z,3.70
2019-05-14T10:00:48.515Z,4.27
2019-05-14T10:03:19.189Z,5.43
2019-05-14T10:05:46.912Z,2.30
2019-05-14T10:08:15.303Z,2.87
2019-05-14T10:10:43.722Z,5.27
2019-05-14T10:13:12.099Z,8.33
2019-05-14T10:15:40.471Z,6.90
2019-05-14T10:18:11.612Z,8.73
2019-05-14T10:20:45.518Z,11.57
2019-05-14T10:23:09.330Z,11.90
2019-05-14T10:25:40.231Z,14.20
2019-05-14T10:28:08.580Z,14.13
2019-05-14T10:30:37.103Z,13.93
2019-05-14T10:33:10.591Z,8.60
2019-05-14T10:35:35.583Z,8.40
2019-05-14T10:38:03.968Z,6.03
2019-05-14T10:40:32.391Z,4.70
2019-05-14T10:43:01.493Z,3.67
2019-05-14T10:45:29.895Z,11.37
2019-05-14T10:47:58.679Z,4.33
2019-05-14T10:50:28.960Z,3.70
2019-05-14T10:52:59.533Z,3.00
2019-05-14T10:55:27.906Z,2.23
2019-05-14T10:57:58.561Z,2.50
2019-05-14T11:00:28.413Z,3.57
2019-05-14T11:02:56.673Z,3.37
2019-05-14T11:05:25.045Z,3.80
2019-05-14T11:07:53.443Z,3.00
2019-05-14T11:10:21.850Z,5.40
2019-05-14T11:12:52.801Z,3.27
2019-05-14T11:15:20.273Z,4.10
2019-05-14T11:17:48.849Z,3.53
2019-05-14T11:20:19.238Z,6.10
2019-05-14T11:22:49.097Z,5.20
2019-05-14T11:25:19.553Z,6.07
2019-05-14T11:27:49.373Z,7.60
2019-05-14T11:30:19.290Z,4.83
2019-05-14T11:32:49.322Z,6.57
2019-05-14T11:35:19.199Z,3.47
2019-05-14T11:37:48.099Z,4.23
2019-05-14T11:40:18.911Z,4.47
2019-05-14T11:42:49.311Z,2.77
2019-05-14T11:45:16.766Z,4.77
2019-05-14T11:47:45.123Z,2.40
2019-05-14T11:50:13.603Z,3.43
2019-05-14T11:52:41.975Z,3.83
2019-05-14T11:55:10.363Z,3.13
2019-05-14T11:57:38.780Z,4.50
2019-05-14T12:00:08.560Z,3.10
2019-05-14T12:02:38.459Z,5.10
2019-05-14T12:05:08.811Z,5.03
2019-05-14T12:07:38.805Z,3.30
2019-05-14T12:10:09.075Z,2.77
2019-05-14T12:12:37.308Z,3.37
2019-05-14T12:15:08.932Z,3.33
2019-05-14T12:17:39.420Z,3.37
2019-05-14T12:20:08.624Z,7.07
2019-05-14T12:22:39.335Z,6.10
2019-05-14T12:25:08.157Z,4.93
2019-05-14T12:27:38.734Z,4.33
2019-05-14T12:30:09.659Z,4.43
2019-05-14T12:32:39.513Z,5.67
2019-05-14T12:35:08.617Z,3.13
2019-05-14T12:37:38.873Z,2.87
2019-05-14T12:40:08.835Z,3.30
2019-05-14T12:42:39.270Z,3.57
2019-05-14T12:45:09.559Z,3.53
2019-05-14T12:47:38.482Z,2.87
2019-05-14T12:50:09.357Z,3.30
2019-05-14T12:52:38.873Z,3.67
2019-05-14T12:55:09.110Z,4.23
2019-05-14T12:57:39.415Z,6.03
2019-05-14T13:00:08.958Z,5.10
2019-05-14T13:02:37.540Z,2.20
2019-05-14T13:05:08.916Z,5.50
2019-05-14T13:07:41.533Z,2.50
2019-05-14T13:10:09.147Z,2.60
2019-05-14T13:12:39.084Z,3.07
2019-05-14T13:15:08.756Z,3.07
2019-05-14T13:17:38.853Z,2.83
2019-05-14T13:20:13.140Z,4.97
2019-05-14T13:22:44.962Z,2.63
2019-05-14T13:25:09.997Z,2.90
2019-05-14T13:27:39.196Z,4.13
2019-05-14T13:30:09.178Z,5.00
2019-05-14T13:32:39.428Z,3.63
2019-05-14T13:35:12.576Z,3.43
2019-05-14T13:37:39.774Z,3.50
2019-05-14T13:40:09.258Z,3.20
2019-05-14T13:42:39.861Z,3.30
2019-05-14T13:45:10.281Z,4.20
2019-05-14T13:47:38.691Z,5.30
2019-05-14T13:50:08.521Z,2.97
2019-05-14T13:52:40.375Z,2.63
2019-05-14T13:55:09.690Z,4.63
2019-05-14T13:57:39.771Z,3.63
2019-05-14T14:00:11.876Z,5.27
2019-05-14T14:02:37.511Z,2.77
2019-05-14T14:05:08.560Z,3.83
2019-05-14T14:07:39.504Z,4.23
2019-05-14T14:10:08.909Z,3.73
2019-05-14T14:12:40.331Z,6.57
2019-05-14T14:15:09.539Z,3.33
2019-05-14T14:17:39.167Z,4.10
2019-05-14T14:20:08.547Z,5.07
2019-05-14T14:22:40.069Z,6.87
2019-05-14T14:25:08.925Z,2.97
2019-05-14T14:27:40.663Z,3.87
2019-05-14T14:30:09.238Z,3.03
2019-05-14T14:32:40.237Z,3.40
2019-05-14T14:35:08.745Z,3.73
2019-05-14T14:37:39.872Z,4.93
2019-05-14T14:40:10.253Z,4.60
2019-05-14T14:42:40.074Z,5.83
2019-05-14T14:45:08.724Z,3.73
2019-05-14T14:47:45.248Z,3.67
2019-05-14T14:50:13.638Z,4.97
2019-05-14T14:52:42.033Z,6.07
2019-05-14T14:55:10.461Z,4.47
2019-05-14T14:57:44.766Z,4.90
2019-05-14T15:00:10.461Z,5.67
2019-05-14T15:02:41.161Z,5.43
2019-05-14T15:05:13.917Z,5.40
2019-05-14T15:07:40.730Z,5.93
2019-05-14T15:10:09.624Z,5.00
2019-05-14T15:12:40.063Z,5.20
2019-05-14T15:15:08.036Z,4.77
2019-05-14T15:17:38.984Z,5.47
2019-05-14T15:20:09.926Z,6.87
2019-05-14T15:22:36.619Z,5.40
2019-05-14T15:25:05.676Z,7.83
2019-05-14T15:27:34.082Z,6.13
2019-05-14T15:30:02.441Z,7.43
2019-05-14T15:32:30.839Z,6.93
2019-05-14T15:34:59.593Z,12.70
2019-05-14T15:37:31.411Z,6.97
2019-05-14T15:39:58.206Z,6.13
2019-05-14T15:42:28.317Z,6.23
2019-05-14T15:44:59.563Z,7.70
2019-05-14T15:47:26.585Z,5.90
2019-05-14T15:49:54.981Z,7.73
2019-05-14T15:52:23.377Z,5.73
2019-05-14T15:54:51.767Z,8.77
2019-05-14T15:57:20.185Z,8.73
2019-05-14T15:59:48.580Z,7.77
2019-05-14T16:02:19.874Z,7.57
2019-05-14T16:04:47.000Z,7.93
2019-05-14T16:07:15.398Z,8.43
2019-05-14T16:09:43.788Z,8.57
2019-05-14T16:12:12.183Z,10.67
2019-05-14T16:14:40.623Z,6.73
2019-05-14T16:17:11.962Z,8.40
2019-05-14T16:19:39.302Z,6.80
2019-05-14T16:22:09.816Z,11.17
2019-05-14T16:24:53.100Z,10.60
2019-05-14T16:27:08.544Z,10.80
2019-05-14T16:29:44.886Z,11.40
2019-05-14T16:32:08.441Z,11.53
2019-05-14T16:34:41.005Z,10.13
2019-05-14T16:37:11.169Z,12.23
2019-05-14T16:39:39.033Z,15.33
2019-05-14T16:42:07.100Z,10.00
2019-05-14T16:44:35.491Z,13.43
2019-05-14T16:47:03.896Z,13.23
2019-05-14T16:49:34.150Z,13.87
2019-05-14T16:52:02.337Z,12.77
2019-05-14T16:54:30.727Z,13.90
2019-05-14T16:56:59.141Z,16.53
2019-05-14T16:59:29.531Z,15.73
2019-05-14T17:01:58.440Z,12.80
2019-05-14T17:04:29.176Z,14.80
2019-05-14T17:06:58.847Z,19.67
2019-05-14T17:09:28.201Z,16.97
2019-05-14T17:11:58.838Z,15.17
2019-05-14T17:14:29.257Z,16.63
2019-05-14T17:16:59.313Z,12.73
2019-05-14T17:19:29.644Z,15.03
2019-05-14T17:21:59.252Z,16.20
2019-05-14T17:24:29.185Z,20.03
2019-05-14T17:26:58.310Z,18.63
2019-05-14T17:29:28.575Z,19.13
2019-05-14T17:31:56.942Z,19.47
2019-05-14T17:34:25.330Z,20.33
2019-05-14T17:36:53.746Z,17.83
2019-05-14T17:39:22.504Z,17.40
2019-05-14T17:41:50.895Z,17.03
2019-05-14T17:44:19.293Z,19.53
2019-05-14T17:46:48.927Z,20.43
2019-05-14T17:49:19.142Z,21.20
2019-05-14T17:51:48.460Z,20.43
2019-05-14T17:54:18.538Z,19.80
2019-05-14T17:56:48.594Z,25.27
2019-05-14T17:59:19.033Z,24.63
2019-05-14T18:01:47.234Z,26.57
2019-05-14T18:04:18.211Z,20.57
2019-05-14T18:06:48.625Z,19.43
2019-05-14T18:09:15.743Z,22.97
2019-05-14T18:11:44.129Z,25.73
2019-05-14T18:14:12.526Z,21.43
2019-05-14T18:16:40.944Z,23.03
2019-05-14T18:19:09.340Z,21.60
2019-05-14T18:21:38.930Z,19.30
2019-05-14T18:24:07.644Z,22.37
2019-05-14T18:26:36.033Z,20.93
2019-05-14T18:29:05.067Z,17.97
2019-05-14T18:31:33.481Z,21.00
2019-05-14T18:34:01.848Z,25.87
2019-05-14T18:36:30.252Z,25.00
2019-05-14T18:38:58.860Z,21.50
2019-05-14T18:41:29.344Z,21.03
2019-05-14T18:43:58.773Z,19.70
2019-05-14T18:46:28.638Z,24.57
2019-05-14T18:48:59.174Z,19.63
2019-05-14T18:51:28.728Z,26.03
2019-05-14T18:53:58.440Z,22.73
2019-05-14T18:56:29.247Z,24.87
2019-05-14T18:58:57.157Z,17.83
2019-05-14T19:01:25.554Z,24.67
2019-05-14T19:03:53.971Z,24.37
2019-05-14T19:06:23.294Z,20.17
2019-05-14T19:08:51.666Z,21.57
2019-05-14T19:11:20.078Z,25.97
2019-05-14T19:13:48.578Z,22.43
2019-05-14T19:16:17.036Z,25.47
2019-05-14T19:18:45.435Z,21.53
2019-05-14T19:21:13.820Z,20.87
2019-05-14T19:23:45.119Z,26.20
2019-05-14T19:26:12.281Z,25.67
2019-05-14T19:28:40.689Z,33.83
2019-05-14T19:31:09.250Z,24.93
2019-05-14T19:33:38.072Z,23.67
2019-05-14T19:36:08.734Z,21.57
2019-05-14T19:38:38.802Z,26.63
2019-05-14T19:41:08.617Z,30.13
2019-05-14T19:43:36.696Z,31.77
2019-05-14T19:46:05.083Z,27.97
2019-05-14T19:48:33.506Z,24.93
2019-05-14T19:51:01.884Z,27.90
2019-05-14T19:53:30.271Z,30.43
2019-05-14T19:55:59.338Z,22.33
2019-05-14T19:58:29.330Z,26.43
2019-05-14T20:00:57.858Z,31.50
2019-05-14T20:03:26.260Z,23.57
2019-05-14T20:05:54.655Z,28.60
2019-05-14T20:08:23.104Z,27.33
2019-05-14T20:10:51.496Z,34.20
2019-05-14T20:13:19.879Z,27.67
2019-05-14T20:15:48.781Z,30.33
2019-05-14T20:18:17.373Z,27.10
2019-05-14T20:20:45.757Z,27.40
2019-05-14T20:23:14.189Z,25.47
2019-05-14T20:25:42.578Z,27.03
2019-05-14T20:28:10.964Z,26.53
2019-05-14T20:30:39.368Z,27.90
2019-05-14T20:33:08.567Z,30.23
2019-05-14T20:35:37.176Z,30.37
2019-05-14T20:38:05.590Z,25.53
2019-05-14T20:40:33.985Z,25.03
2019-05-14T20:43:02.380Z,23.37
2019-05-14T20:45:30.799Z,25.63
2019-05-14T20:47:59.180Z,27.37
2019-05-14T20:50:29.049Z,26.47
2019-05-14T20:52:59.221Z,28.23
2019-05-14T20:55:28.605Z,30.13
2019-05-14T20:57:58.785Z,27.47
2019-05-14T21:00:29.244Z,26.73
2019-05-14T21:02:59.603Z,26.87
2019-05-14T21:05:28.614Z,28.20
2019-05-14T21:07:58.893Z,25.07
2019-05-14T21:10:29.182Z,34.63
2019-05-14T21:12:58.034Z,32.33
2019-05-14T21:15:28.609Z,27.53
2019-05-14T21:17:59.268Z,28.13
2019-05-14T21:20:28.222Z,37.77
2019-05-14T21:22:58.446Z,31.07
2019-05-14T21:25:29.275Z,32.10
2019-05-14T21:27:58.687Z,32.20
2019-05-14T21:30:29.536Z,30.87
2019-05-14T21:33:00.122Z,32.93
2019-05-14T21:35:29.183Z,34.13
2019-05-14T21:38:01.209Z,35.03
2019-05-14T21:40:32.867Z,40.67
2019-05-14T21:43:01.286Z,33.90
2019-05-14T21:45:29.718Z,39.93
2019-05-14T21:47:59.457Z,30.20
2019-05-14T21:50:28.892Z,42.73
2019-05-14T21:52:59.458Z,34.27
2019-05-14T21:55:28.874Z,34.50
2019-05-14T21:57:57.504Z,40.17
2019-05-14T22:00:41.505Z,34.37
2019-05-14T22:03:10.177Z,34.47
2019-05-14T22:05:39.379Z,34.97
2019-05-14T22:08:08.848Z,41.83
2019-05-14T22:10:39.859Z,39.57
2019-05-14T22:13:07.998Z,33.10
2019-05-14T22:15:38.998Z,40.80
2019-05-14T22:18:16.551Z,35.47
2019-05-14T22:20:38.577Z,43.13
2019-05-14T22:23:08.921Z,42.43
2019-05-14T22:25:39.317Z,44.83
2019-05-14T22:28:12.397Z,39.67
2019-05-14T22:30:38.875Z,36.33
2019-05-14T22:33:08.539Z,38.17
2019-05-14T22:35:39.725Z,37.07
2019-05-14T22:38:07.243Z,38.07
2019-05-14T22:40:35.640Z,35.10
2019-05-14T22:43:04.068Z,37.90
2019-05-14T22:45:32.452Z,40.77
2019-05-14T22:48:00.847Z,38.67
2019-05-14T22:50:29.555Z,43.30
2019-05-14T22:52:58.608Z,45.00
2019-05-14T22:55:30.858Z,45.67
2019-05-14T22:57:59.207Z,41.70
2019-05-14T23:00:28.618Z,43.20
2019-05-14T23:02:57.433Z,54.03
2019-05-14T23:05:25.809Z,44.93
2019-05-14T23:07:54.242Z,38.13
2019-05-14T23:10:22.639Z,51.17
2019-05-14T23:12:51.006Z,45.67
2019-05-14T23:15:19.442Z,42.60
2019-05-14T23:17:48.126Z,45.40
2019-05-14T23:20:16.510Z,40.83
2019-05-14T23:22:44.900Z,44.20
2019-05-14T23:25:13.356Z,48.60
2019-05-14T23:27:41.731Z,47.50
2019-05-14T23:30:10.115Z,43.03
2019-05-14T23:32:38.772Z,41.33
2019-05-14T23:35:07.228Z,42.73
2019-05-14T23:37:35.614Z,44.77
2019-05-14T23:40:05.575Z,47.40
2019-05-14T23:42:33.938Z,36.20
2019-05-14T23:45:02.411Z,44.53
2019-05-14T23:47:30.819Z,51.70
2019-05-14T23:49:59.203Z,43.90
2019-05-14T23:52:29.229Z,48.07
2019-05-14T23:54:57.650Z,48.70
2019-05-14T23:57:26.033Z,43.57
2019-05-14T23:59:54.423Z,42.70
